Time;durP1;ratioP1;P1;durP2;ratioP2;P2;SDS_P1;SDS_P2;PMS_P1;PMS_P2;Temp;Humidity;BMP_temperature;BMP_pressure;BME280_temperature;BME280_humidity;BME280_pressure;Samples;Min_cycle;Max_cycle;Signal;HPM_P1;HPM_P2
2022/01/25 00:24:22;;;;;;;58.10;36.00;;;3.50;99.90;;;;;;5036445;28;20226;-27
2022/01/25 00:29:46;;;;;;;59.23;35.83;;;3.50;99.90;;;;;;5024108;28;20204;-26
2022/01/25 00:32:17;;;;;;;62.03;36.73;;;3.50;99.90;;;;;;5010831;28;20209;-27
2022/01/25 00:34:47;;;;;;;61.37;34.67;;;3.40;99.90;;;;;;5010610;28;20792;-27
2022/01/25 00:37:20;;;;;;;59.97;36.83;;;3.40;99.90;;;;;;5009479;28;20209;-27
2022/01/25 00:39:51;;;;;;;62.37;34.90;;;3.40;99.90;;;;;;5023343;28;20232;-27
2022/01/25 00:42:23;;;;;;;61.00;36.23;;;3.40;99.90;;;;;;5040602;28;20205;-26
2022/01/25 00:44:50;;;;;;;57.90;35.10;;;3.40;99.90;;;;;;5042051;28;20240;-27
2022/01/25 00:47:20;;;;;;;61.37;35.93;;;3.40;99.90;;;;;;5010331;28;20205;-26
2022/01/25 00:49:52;;;;;;;57.53;34.47;;;3.40;99.90;;;;;;5010697;28;20212;-27
2022/01/25 00:55:05;;;;;;;61.53;36.70;;;3.30;99.90;;;;;;5007562;28;20202;-26
2022/01/25 00:57:35;;;;;;;56.53;33.97;;;3.30;99.90;;;;;;5004033;28;20635;-26
2022/01/25 01:00:06;;;;;;;58.33;36.33;;;3.30;99.90;;;;;;5007518;28;20204;-26
2022/01/25 01:02:33;;;;;;;58.23;35.53;;;3.30;99.90;;;;;;5040252;28;20213;-26
2022/01/25 01:05:01;;;;;;;56.57;34.23;;;3.20;99.90;;;;;;5008593;28;20226;-26
2022/01/25 01:07:28;;;;;;;62.67;35.60;;;3.20;99.90;;;;;;5009128;28;20257;-26
2022/01/25 01:09:58;;;;;;;61.27;35.23;;;3.10;99.90;;;;;;5010001;28;20256;-26
2022/01/25 01:12:57;;;;;;;58.87;35.63;;;3.10;99.90;;;;;;5009593;28;20210;-26
2022/01/25 01:31:54;;;;;;;59.60;35.53;;;2.90;99.90;;;;;;5008182;28;20201;-27
2022/01/25 01:35:07;;;;;;;61.13;36.50;;;2.90;99.90;;;;;;5008675;28;20264;-27
2022/01/25 01:43:01;;;;;;;64.33;35.73;;;2.80;99.90;;;;;;5006522;28;20232;-27
2022/01/25 01:48:10;;;;;;;67.63;37.90;;;2.80;99.90;;;;;;5040309;28;20228;-27
2022/01/25 01:50:38;;;;;;;61.30;36.83;;;2.80;99.90;;;;;;5005787;28;20237;-27
2022/01/25 01:53:07;;;;;;;59.23;34.73;;;2.70;99.90;;;;;;5001618;28;20293;-27
2022/01/25 01:55:37;;;;;;;62.37;35.33;;;2.70;99.90;;;;;;5004969;28;20224;-27
2022/01/25 01:58:05;;;;;;;59.67;36.10;;;2.70;99.90;;;;;;5006930;28;20636;-26
2022/01/25 02:00:38;;;;;;;58.47;35.70;;;2.70;99.90;;;;;;5007839;28;20229;-27
2022/01/25 02:03:06;;;;;;;59.90;36.70;;;2.70;99.90;;;;;;5008671;28;20217;-26
2022/01/25 02:05:36;;;;;;;61.17;35.03;;;2.70;99.90;;;;;;5008151;28;20295;-26
2022/01/25 02:08:09;;;;;;;58.10;35.10;;;2.70;99.90;;;;;;5006037;28;20238;-26
2022/01/25 02:10:37;;;;;;;60.40;34.90;;;2.70;99.90;;;;;;5023992;28;20218;-27
2022/01/25 02:13:07;;;;;;;57.47;34.80;;;2.70;99.90;;;;;;5007171;28;20213;-26
2022/01/25 02:15:36;;;;;;;57.93;34.80;;;2.70;99.90;;;;;;5007277;28;20578;-26
2022/01/25 02:23:46;;;;;;;54.67;32.97;;;2.60;99.90;;;;;;5009505;28;20230;-25
2022/01/25 02:26:14;;;;;;;57.27;32.87;;;2.60;99.90;;;;;;5010641;28;20197;-26
2022/01/25 02:28:48;;;;;;;57.57;34.33;;;2.60;99.90;;;;;;5007230;28;20665;-26
2022/01/25 02:31:16;;;;;;;53.73;32.27;;;2.60;99.90;;;;;;5007301;28;20205;-25
2022/01/25 02:33:45;;;;;;;60.07;35.37;;;2.60;99.90;;;;;;5008729;28;20228;-25
2022/01/25 02:36:27;;;;;;;55.20;32.20;;;2.60;99.90;;;;;;5006066;28;20221;-25
2022/01/25 02:38:57;;;;;;;56.67;32.73;;;2.60;99.90;;;;;;5038394;28;20312;-25
2022/01/25 02:41:24;;;;;;;55.63;33.13;;;2.50;99.90;;;;;;5005771;28;20342;-26
2022/01/25 02:43:53;;;;;;;54.00;33.37;;;2.50;99.90;;;;;;5007862;28;20641;-26
2022/01/25 02:48:29;;;;;;;54.83;33.47;;;2.50;99.90;;;;;;5004218;28;20226;-26
2022/01/25 02:49:13;;;;;;;57.97;34.17;;;2.50;99.90;;;;;;5008088;28;20197;-27
2022/01/25 02:51:48;;;;;;;54.80;33.63;;;2.50;99.90;;;;;;5007365;28;20256;-27
2022/01/25 02:54:17;;;;;;;56.67;33.63;;;2.50;99.90;;;;;;4991598;28;20208;-27
2022/01/25 02:56:46;;;;;;;55.43;34.03;;;2.50;99.90;;;;;;5006041;28;20297;-27
2022/01/25 02:59:19;;;;;;;56.30;34.73;;;2.50;99.90;;;;;;5002168;28;20205;-27
2022/01/25 03:01:49;;;;;;;59.97;33.77;;;2.50;99.90;;;;;;5005764;28;20446;-27
2022/01/25 03:04:23;;;;;;;58.87;33.03;;;2.50;99.90;;;;;;5006989;28;20226;-27
2022/01/25 03:06:51;;;;;;;52.57;32.53;;;2.50;99.90;;;;;;5003671;28;20201;-26
2022/01/25 03:09:19;;;;;;;55.77;33.40;;;2.50;99.90;;;;;;5008125;28;20198;-27
2022/01/25 03:11:49;;;;;;;58.33;33.53;;;2.50;99.90;;;;;;5006709;28;20232;-26
2022/01/25 03:14:19;;;;;;;57.23;34.40;;;2.50;99.90;;;;;;5007341;28;20197;-27
2022/01/25 03:17:06;;;;;;;56.30;33.73;;;2.50;99.90;;;;;;5007467;28;20212;-25
2022/01/25 03:25:00;;;;;;;53.33;32.10;;;2.60;99.90;;;;;;5006103;28;20275;-25
2022/01/25 03:27:27;;;;;;;56.60;33.53;;;2.60;99.90;;;;;;5002746;28;20216;-25
2022/01/25 03:29:58;;;;;;;54.60;32.47;;;2.70;99.90;;;;;;5001439;28;20301;-26
2022/01/25 03:32:25;;;;;;;52.53;31.63;;;2.70;99.90;;;;;;5022126;28;20587;-26
2022/01/25 03:34:56;;;;;;;48.63;32.50;;;2.70;99.90;;;;;;5006315;28;20216;-26
2022/01/25 03:37:24;;;;;;;48.27;32.10;;;2.80;99.90;;;;;;5006671;28;20237;-26
2022/01/25 03:39:56;;;;;;;48.73;31.30;;;2.80;99.90;;;;;;5007992;28;20202;-25
2022/01/25 03:42:24;;;;;;;49.47;31.73;;;2.90;99.90;;;;;;5007034;28;20216;-24
2022/01/25 03:44:51;;;;;;;49.20;29.80;;;2.90;99.90;;;;;;5018916;28;20313;-24
2022/01/25 03:47:29;;;;;;;49.47;31.53;;;3.00;99.90;;;;;;4994787;28;20189;-25
2022/01/25 03:49:56;;;;;;;53.47;31.03;;;3.00;99.90;;;;;;5007242;28;20201;-26
2022/01/25 03:52:35;;;;;;;49.03;30.63;;;3.10;99.90;;;;;;5004595;28;20209;-25
2022/01/25 03:55:03;;;;;;;50.37;31.27;;;3.10;99.90;;;;;;5005648;28;20224;-25
2022/01/25 03:57:31;;;;;;;58.10;33.10;;;3.20;99.90;;;;;;5009614;28;20201;-25
2022/01/25 03:59:59;;;;;;;56.97;34.00;;;3.20;99.90;;;;;;5004854;28;20202;-26
2022/01/25 04:02:32;;;;;;;53.93;31.03;;;3.30;99.90;;;;;;5007301;28;20228;-25
2022/01/25 04:05:01;;;;;;;52.03;31.57;;;3.30;99.90;;;;;;5007117;28;20329;-25
2022/01/25 04:07:44;;;;;;;55.67;32.27;;;3.40;99.90;;;;;;5005642;28;20690;-26
2022/01/25 04:10:14;;;;;;;56.27;32.37;;;3.40;99.90;;;;;;5007985;28;20193;-26
2022/01/25 04:12:45;;;;;;;53.67;31.73;;;3.50;99.90;;;;;;5009994;28;20585;-25
2022/01/25 04:15:13;;;;;;;55.40;31.87;;;3.50;99.90;;;;;;5009754;28;21028;-25
2022/01/25 04:17:44;;;;;;;52.43;31.07;;;3.50;99.90;;;;;;5009852;28;20208;-25
2022/01/25 04:20:19;;;;;;;58.43;33.57;;;3.60;99.90;;;;;;5007382;28;20672;-25
2022/01/25 04:25:31;;;;;;;55.47;31.90;;;3.70;99.90;;;;;;5010100;28;20730;-25
2022/01/25 04:27:59;;;;;;;57.27;32.70;;;3.70;99.90;;;;;;5009258;28;20240;-25
2022/01/25 04:30:29;;;;;;;58.03;33.17;;;3.70;99.90;;;;;;5008130;28;20213;-25
2022/01/25 04:49:19;;;;;;;60.40;34.43;;;3.90;99.90;;;;;;5009745;28;20200;-25
2022/01/25 04:51:55;;;;;;;60.37;33.67;;;3.90;99.90;;;;;;5007818;28;21008;-26
2022/01/25 05:00:12;;;;;;;58.17;32.13;;;4.00;99.90;;;;;;5010224;28;20197;-25
2022/01/25 05:02:51;;;;;;;57.63;33.27;;;4.00;99.90;;;;;;5007421;28;20206;-25
2022/01/25 05:05:31;;;;;;;60.07;32.30;;;4.00;99.90;;;;;;5006358;28;20457;-25
2022/01/25 05:10:33;;;;;;;57.67;31.90;;;4.00;99.90;;;;;;5009882;28;20722;-25
2022/01/25 05:13:26;;;;;;;58.23;31.80;;;4.00;99.90;;;;;;5009897;28;20490;-25
2022/01/25 05:18:48;;;;;;;56.90;31.37;;;4.00;99.90;;;;;;5009154;28;20209;-25
2022/01/25 05:24:04;;;;;;;61.07;32.40;;;4.00;99.90;;;;;;5008862;28;20235;-25
2022/01/25 05:26:31;;;;;;;55.43;30.80;;;4.00;99.90;;;;;;5008114;28;20213;-25
2022/01/25 05:28:59;;;;;;;62.30;33.43;;;4.00;99.90;;;;;;5012215;28;20205;-25
2022/01/25 05:31:26;;;;;;;63.87;32.90;;;4.10;99.90;;;;;;5009377;28;20197;-25
2022/01/25 05:33:53;;;;;;;64.03;34.60;;;4.10;99.90;;;;;;5009353;28;20222;-25
2022/01/25 05:36:24;;;;;;;61.33;34.20;;;4.10;99.90;;;;;;5008740;28;20208;-25
2022/01/25 05:38:56;;;;;;;58.77;31.93;;;4.10;99.90;;;;;;5007923;28;20232;-25
2022/01/25 05:41:28;;;;;;;63.37;33.60;;;4.10;99.90;;;;;;5008668;28;20604;-26
2022/01/25 05:46:44;;;;;;;63.60;33.47;;;4.10;99.90;;;;;;5009180;28;20217;-25
2022/01/25 05:49:18;;;;;;;65.80;33.53;;;4.10;99.90;;;;;;5008005;28;20201;-26
2022/01/25 05:51:48;;;;;;;64.17;34.60;;;4.10;99.90;;;;;;5007845;28;20315;-25
2022/01/25 05:54:16;;;;;;;66.40;34.20;;;4.10;99.90;;;;;;5009270;28;20206;-25
2022/01/25 05:56:48;;;;;;;68.20;34.10;;;4.10;99.90;;;;;;5008206;28;20214;-25
2022/01/25 05:59:15;;;;;;;71.87;34.37;;;4.10;99.90;;;;;;4995896;28;20202;-25
2022/01/25 06:01:45;;;;;;;64.67;34.80;;;4.10;99.90;;;;;;5002483;28;20598;-25
2022/01/25 06:04:17;;;;;;;69.77;34.50;;;4.10;99.90;;;;;;5005137;28;20200;-25
2022/01/25 06:06:49;;;;;;;66.50;35.30;;;4.10;99.90;;;;;;5001933;28;20276;-25
2022/01/25 06:09:17;;;;;;;66.40;34.47;;;4.20;99.90;;;;;;5003707;28;20353;-26
2022/01/25 06:11:47;;;;;;;69.93;36.13;;;4.10;99.90;;;;;;5002733;28;20642;-25
2022/01/25 06:14:14;;;;;;;66.97;33.80;;;4.20;99.90;;;;;;5002019;28;20569;-25
2022/01/25 06:16:41;;;;;;;64.97;34.23;;;4.20;99.90;;;;;;5003898;28;20232;-25
2022/01/25 06:19:08;;;;;;;69.83;35.60;;;4.20;99.90;;;;;;5006061;28;20209;-25
2022/01/25 06:21:36;;;;;;;69.57;34.40;;;4.20;99.90;;;;;;5003892;28;20202;-26
2022/01/25 06:24:03;;;;;;;69.27;34.70;;;4.20;99.90;;;;;;5008743;28;20204;-26
2022/01/25 06:26:36;;;;;;;64.73;33.60;;;4.20;99.90;;;;;;5022628;28;20213;-26
2022/01/25 06:29:03;;;;;;;66.30;33.37;;;4.20;99.90;;;;;;5004918;28;20201;-27
2022/01/25 06:31:33;;;;;;;71.43;34.53;;;4.20;99.90;;;;;;5007347;28;20209;-27
2022/01/25 06:34:01;;;;;;;63.67;32.30;;;4.20;99.90;;;;;;5004489;28;20281;-26
2022/01/25 06:36:28;;;;;;;63.53;33.23;;;4.20;99.90;;;;;;5007866;28;20212;-26
2022/01/25 06:38:57;;;;;;;62.43;32.90;;;4.20;99.90;;;;;;5007725;28;20216;-27
2022/01/25 06:41:26;;;;;;;67.13;34.63;;;4.20;99.90;;;;;;5008467;28;20236;-27
2022/01/25 06:43:53;;;;;;;65.60;33.27;;;4.20;99.90;;;;;;5021979;28;20305;-26
2022/01/25 06:46:20;;;;;;;65.00;33.67;;;4.20;99.90;;;;;;5008062;28;20257;-26
2022/01/25 06:48:50;;;;;;;67.40;33.70;;;4.20;99.90;;;;;;5007325;28;20311;-27
2022/01/25 06:51:21;;;;;;;63.27;31.90;;;4.20;99.90;;;;;;5005583;28;20305;-27
2022/01/25 06:53:48;;;;;;;64.13;33.00;;;4.20;99.90;;;;;;5007386;28;20214;-27
2022/01/25 06:56:18;;;;;;;66.53;34.87;;;4.20;99.90;;;;;;5006802;28;20208;-27
2022/01/25 06:58:45;;;;;;;66.60;33.20;;;4.20;99.90;;;;;;5004686;28;20213;-27
2022/01/25 07:01:13;;;;;;;69.40;33.33;;;4.20;99.90;;;;;;5003952;28;20930;-26
2022/01/25 07:03:40;;;;;;;61.17;32.40;;;4.20;99.90;;;;;;5003568;28;20201;-26
2022/01/25 07:06:11;;;;;;;69.17;33.57;;;4.20;99.90;;;;;;5003385;28;20229;-26
2022/01/25 07:08:44;;;;;;;66.20;31.93;;;4.20;99.90;;;;;;5008008;28;20252;-26
2022/01/25 07:11:14;;;;;;;67.77;32.97;;;4.20;99.90;;;;;;5021859;28;20567;-25
2022/01/25 07:13:42;;;;;;;65.03;33.63;;;4.20;99.90;;;;;;5003422;28;20208;-25
2022/01/25 07:16:18;;;;;;;65.90;32.63;;;4.20;99.90;;;;;;5007126;28;20236;-26
2022/01/25 07:18:45;;;;;;;70.50;33.87;;;4.20;99.90;;;;;;5007503;28;20684;-25
2022/01/25 07:21:13;;;;;;;66.90;33.23;;;4.20;99.90;;;;;;5021249;28;20241;-25
2022/01/25 07:23:42;;;;;;;68.90;34.27;;;4.20;99.90;;;;;;5007280;28;20206;-25
2022/01/25 07:26:12;;;;;;;73.10;33.33;;;4.20;99.90;;;;;;5007138;28;20288;-25
2022/01/25 07:28:45;;;;;;;69.17;33.30;;;4.30;99.90;;;;;;5007050;28;20664;-25
2022/01/25 07:31:12;;;;;;;73.27;34.83;;;4.30;99.90;;;;;;5007287;28;20201;-25
2022/01/25 07:33:42;;;;;;;75.17;33.93;;;4.30;99.90;;;;;;5007465;28;20288;-27
2022/01/25 07:36:15;;;;;;;73.60;32.80;;;4.30;99.90;;;;;;5006054;28;20221;-26
2022/01/25 07:38:46;;;;;;;66.73;33.10;;;4.30;99.90;;;;;;5021039;28;20301;-26
2022/01/25 07:41:16;;;;;;;74.67;33.53;;;4.30;99.90;;;;;;5007579;28;20205;-27
2022/01/25 07:43:47;;;;;;;73.67;35.07;;;4.30;99.90;;;;;;5007627;28;20209;-27
2022/01/25 07:46:24;;;;;;;71.17;33.50;;;4.30;99.90;;;;;;5009504;28;20295;-26
2022/01/25 07:49:01;;;;;;;72.50;35.60;;;4.30;99.90;;;;;;5010982;28;20229;-26
2022/01/25 07:51:36;;;;;;;66.07;33.17;;;4.30;99.90;;;;;;5007319;28;20291;-27
2022/01/25 07:54:05;;;;;;;77.10;35.73;;;4.30;99.90;;;;;;5015557;28;20216;-26
2022/01/25 07:56:32;;;;;;;70.63;34.17;;;4.30;99.90;;;;;;5010791;28;20762;-27
2022/01/25 07:59:04;;;;;;;73.40;34.30;;;4.40;99.90;;;;;;5010807;28;20652;-27
2022/01/25 08:01:33;;;;;;;76.87;34.00;;;4.30;99.90;;;;;;5026297;28;20209;-26
2022/01/25 08:04:06;;;;;;;75.33;34.40;;;4.40;99.90;;;;;;5014023;28;20237;-26
2022/01/25 08:06:41;;;;;;;69.97;32.87;;;4.40;99.90;;;;;;5009663;28;20232;-26
2022/01/25 08:09:15;;;;;;;68.70;34.17;;;4.40;99.90;;;;;;5023186;28;20201;-26
2022/01/25 08:11:43;;;;;;;67.77;34.00;;;4.40;99.90;;;;;;5027468;28;20678;-26
2022/01/25 08:14:13;;;;;;;68.23;34.13;;;4.40;99.90;;;;;;5015665;28;20201;-26
2022/01/25 08:16:51;;;;;;;70.33;33.40;;;4.40;99.90;;;;;;5010301;28;20213;-26
2022/01/25 08:19:25;;;;;;;67.50;32.37;;;4.40;99.90;;;;;;5014222;28;20586;-26
2022/01/25 08:22:00;;;;;;;66.00;31.57;;;4.40;99.90;;;;;;5014040;28;20204;-26
2022/01/25 08:24:29;;;;;;;64.53;33.60;;;4.40;99.90;;;;;;5010931;28;20198;-26
2022/01/25 08:27:07;;;;;;;68.07;33.27;;;4.40;99.90;;;;;;5009735;28;20318;-27
2022/01/25 08:29:36;;;;;;;70.07;34.90;;;4.40;99.90;;;;;;5011079;28;20193;-26
2022/01/25 08:32:06;;;;;;;64.93;33.43;;;4.50;99.90;;;;;;5009930;28;20233;-26
2022/01/25 08:34:38;;;;;;;68.93;32.73;;;4.50;99.90;;;;;;5009875;28;20672;-26
2022/01/25 08:37:19;;;;;;;67.23;33.23;;;4.40;99.90;;;;;;5017482;28;20688;-26
2022/01/25 08:39:47;;;;;;;64.83;32.80;;;4.50;99.90;;;;;;5026690;28;20719;-26
2022/01/25 08:42:25;;;;;;;65.53;31.87;;;4.50;99.90;;;;;;5010332;28;20210;-26
2022/01/25 08:45:15;;;;;;;68.07;33.63;;;4.50;99.90;;;;;;5007262;28;20260;-26
2022/01/25 08:47:43;;;;;;;63.50;31.77;;;4.50;99.90;;;;;;5010142;28;20217;-26
2022/01/25 08:50:17;;;;;;;62.93;32.27;;;4.50;99.90;;;;;;5010123;28;20234;-26
2022/01/25 08:52:53;;;;;;;63.13;32.50;;;4.60;99.90;;;;;;5023568;28;20304;-26
2022/01/25 08:55:30;;;;;;;61.37;31.60;;;4.60;99.90;;;;;;5010329;28;20618;-26
2022/01/25 08:58:17;;;;;;;65.60;32.50;;;4.60;99.90;;;;;;5008888;28;20225;-26
2022/01/25 09:00:46;;;;;;;60.63;30.93;;;4.60;99.90;;;;;;5010471;28;20256;-27
2022/01/25 09:03:19;;;;;;;62.87;31.00;;;4.60;99.90;;;;;;5009421;28;20216;-26
2022/01/25 09:05:46;;;;;;;67.07;32.63;;;4.60;99.90;;;;;;5023738;28;20270;-26
2022/01/25 09:08:21;;;;;;;67.67;31.80;;;4.70;99.90;;;;;;5011713;28;20619;-26
2022/01/25 09:10:59;;;;;;;60.03;31.07;;;4.70;99.90;;;;;;5008571;28;20602;-27
2022/01/25 09:13:29;;;;;;;65.17;32.07;;;4.70;99.90;;;;;;5009561;28;20205;-27
2022/01/25 09:15:57;;;;;;;63.60;30.80;;;4.70;99.90;;;;;;5009846;28;20221;-26
2022/01/25 09:18:28;;;;;;;66.40;32.20;;;4.70;99.90;;;;;;5010000;28;20205;-26
2022/01/25 09:20:56;;;;;;;69.53;33.13;;;4.70;99.90;;;;;;5007025;28;20204;-26
2022/01/25 09:23:25;;;;;;;67.00;31.73;;;4.70;99.90;;;;;;5007120;28;20198;-27
2022/01/25 09:25:57;;;;;;;66.23;32.17;;;4.80;99.90;;;;;;5004500;28;20253;-26
2022/01/25 09:28:24;;;;;;;65.50;32.60;;;4.80;99.90;;;;;;4996202;28;20204;-26
2022/01/25 09:30:51;;;;;;;68.23;32.93;;;4.80;99.90;;;;;;5009595;28;20231;-26
2022/01/25 09:33:24;;;;;;;65.30;31.90;;;4.80;99.90;;;;;;5016069;28;20240;-26
2022/01/25 09:35:55;;;;;;;61.60;31.13;;;4.90;99.90;;;;;;5009126;28;20209;-26
2022/01/25 09:38:25;;;;;;;61.47;31.83;;;4.90;99.90;;;;;;5023535;28;20201;-26
2022/01/25 09:40:53;;;;;;;60.87;31.30;;;4.90;99.90;;;;;;5007641;28;20838;-27
2022/01/25 09:43:24;;;;;;;66.03;32.30;;;4.90;99.90;;;;;;5006601;28;20260;-27
2022/01/25 09:45:51;;;;;;;65.40;31.57;;;5.00;99.90;;;;;;5012608;28;20690;-26
2022/01/25 09:48:21;;;;;;;65.00;32.20;;;5.00;99.90;;;;;;5009467;28;20244;-26
2022/01/25 09:50:50;;;;;;;60.57;31.43;;;4.90;99.90;;;;;;5008573;28;20237;-26
2022/01/25 09:53:20;;;;;;;64.37;31.20;;;5.00;99.90;;;;;;5008906;28;20229;-26
2022/01/25 09:55:52;;;;;;;63.73;32.00;;;5.00;99.90;;;;;;5009353;28;20233;-26
2022/01/25 09:58:22;;;;;;;65.13;32.40;;;5.00;99.90;;;;;;5007281;28;20217;-26
2022/01/25 10:00:55;;;;;;;65.73;32.63;;;5.10;99.90;;;;;;5019155;28;20567;-26
2022/01/25 10:03:33;;;;;;;59.90;30.03;;;5.10;99.90;;;;;;5017346;28;20205;-26
2022/01/25 10:06:10;;;;;;;61.10;31.57;;;5.10;99.90;;;;;;5008185;28;20590;-26
2022/01/25 10:08:38;;;;;;;58.97;30.73;;;5.20;99.90;;;;;;5007961;28;20201;-26
2022/01/25 10:11:16;;;;;;;64.50;32.60;;;5.20;99.90;;;;;;5006688;28;20233;-26
2022/01/25 10:13:46;;;;;;;62.80;32.17;;;5.20;99.90;;;;;;5013466;28;20216;-26
2022/01/25 10:16:19;;;;;;;59.67;29.67;;;5.30;99.90;;;;;;5008768;28;20217;-25
2022/01/25 10:18:56;;;;;;;60.87;30.80;;;5.30;99.90;;;;;;5007675;28;20209;-26
2022/01/25 10:21:32;;;;;;;59.23;29.83;;;5.30;99.90;;;;;;5007626;28;20264;-26
2022/01/25 10:24:13;;;;;;;60.77;30.57;;;5.30;99.90;;;;;;5008508;28;20691;-26
2022/01/25 10:27:21;;;;;;;57.33;30.43;;;5.30;99.90;;;;;;5024093;28;20225;-26
2022/01/25 10:29:48;;;;;;;62.13;31.37;;;5.40;99.90;;;;;;5015954;28;20206;-27
2022/01/25 10:32:22;;;;;;;57.80;30.30;;;5.40;99.90;;;;;;5004810;28;20201;-27
2022/01/25 10:34:50;;;;;;;56.13;30.70;;;5.40;99.90;;;;;;5023255;28;20201;-26
2022/01/25 10:37:22;;;;;;;57.57;30.43;;;5.40;99.90;;;;;;5006995;28;20197;-26
2022/01/25 10:39:52;;;;;;;56.53;29.00;;;5.40;99.90;;;;;;5007837;28;20238;-26
2022/01/25 10:42:23;;;;;;;56.90;30.63;;;5.50;99.90;;;;;;5018422;28;20232;-26
2022/01/25 10:45:04;;;;;;;59.00;31.50;;;5.50;99.90;;;;;;5008490;28;20201;-26
2022/01/25 10:47:49;;;;;;;59.13;31.53;;;5.50;99.90;;;;;;5007911;28;20221;-25
2022/01/25 10:50:22;;;;;;;60.43;31.07;;;5.60;99.90;;;;;;5007402;28;20233;-25
2022/01/25 10:53:06;;;;;;;57.57;31.70;;;5.60;99.90;;;;;;5012617;28;20202;-25
2022/01/25 10:55:40;;;;;;;54.87;30.97;;;5.60;99.90;;;;;;5016894;28;20244;-25
2022/01/25 10:58:10;;;;;;;57.83;30.13;;;5.60;99.90;;;;;;5007541;28;20227;-25
2022/01/25 11:00:42;;;;;;;57.00;31.77;;;5.70;99.90;;;;;;5007656;28;20205;-25
2022/01/25 11:03:24;;;;;;;54.00;30.00;;;5.70;99.90;;;;;;5008100;28;20283;-25
2022/01/25 11:05:55;;;;;;;51.80;29.43;;;5.80;99.90;;;;;;5006469;28;20226;-25
2022/01/25 11:08:28;;;;;;;53.47;30.37;;;5.80;99.90;;;;;;5023135;28;20198;-24
2022/01/25 11:10:59;;;;;;;53.37;30.67;;;5.80;99.90;;;;;;5007550;28;20212;-24
2022/01/25 11:13:39;;;;;;;55.20;29.77;;;5.80;99.90;;;;;;5010589;28;20610;-25
2022/01/25 11:16:13;;;;;;;54.07;30.17;;;5.90;99.90;;;;;;5007055;28;20707;-25
2022/01/25 11:18:43;;;;;;;58.60;30.40;;;5.90;99.90;;;;;;5008361;28;20711;-25
2022/01/25 11:21:11;;;;;;;60.40;32.77;;;5.90;99.90;;;;;;5009146;28;20695;-25
2022/01/25 11:23:41;;;;;;;55.33;29.70;;;5.90;99.90;;;;;;5013153;28;20207;-25
2022/01/25 11:26:13;;;;;;;56.13;30.60;;;5.90;99.90;;;;;;5024505;28;20228;-24
2022/01/25 11:28:45;;;;;;;57.13;31.10;;;5.90;99.90;;;;;;5019338;28;20584;-25
2022/01/25 11:31:22;;;;;;;63.07;31.13;;;5.90;99.90;;;;;;5013604;28;20205;-25
2022/01/25 11:33:52;;;;;;;63.10;31.50;;;5.90;99.90;;;;;;5022404;28;20227;-25
2022/01/25 11:36:20;;;;;;;65.13;32.63;;;5.90;99.90;;;;;;5011908;28;20554;-25
2022/01/25 11:38:54;;;;;;;56.60;30.53;;;6.00;99.90;;;;;;5013626;28;20564;-25
2022/01/25 11:41:26;;;;;;;66.83;31.87;;;6.00;99.90;;;;;;5013348;28;20212;-25
2022/01/25 11:44:10;;;;;;;64.10;31.03;;;6.00;99.90;;;;;;5039207;28;20217;-24
2022/01/25 11:46:50;;;;;;;58.37;30.73;;;6.00;99.90;;;;;;5012906;28;20220;-25
2022/01/25 11:49:21;;;;;;;60.90;31.07;;;6.00;99.90;;;;;;5026436;28;20676;-24
2022/01/25 11:52:13;;;;;;;61.80;31.40;;;6.00;99.90;;;;;;5011398;28;20352;-25
2022/01/25 11:54:44;;;;;;;58.20;31.17;;;6.00;99.90;;;;;;4994787;28;20210;-25
2022/01/25 11:57:16;;;;;;;59.20;31.40;;;6.00;99.90;;;;;;5024981;28;20205;-25
2022/01/25 11:59:58;;;;;;;61.37;30.50;;;6.00;99.90;;;;;;5014816;28;20220;-25
2022/01/25 12:02:59;;;;;;;61.13;30.20;;;6.00;99.90;;;;;;5022332;28;20205;-25
2022/01/25 12:05:29;;;;;;;58.13;30.20;;;6.00;99.90;;;;;;4993518;28;20214;-25
2022/01/25 12:08:15;;;;;;;61.80;31.20;;;6.00;99.90;;;;;;5013915;28;20259;-25
2022/01/25 12:10:46;;;;;;;59.33;31.50;;;6.00;99.90;;;;;;5013642;28;20205;-26
2022/01/25 12:13:20;;;;;;;61.33;31.03;;;6.00;99.90;;;;;;5012732;28;20259;-26
2022/01/25 12:16:21;;;;;;;63.10;31.90;;;6.00;99.90;;;;;;5014824;28;20232;-27
2022/01/25 12:18:57;;;;;;;67.33;32.37;;;6.10;99.90;;;;;;5035075;28;20217;-26
2022/01/25 12:24:31;;;;;;;68.80;32.63;;;6.10;99.90;;;;;;4994308;28;20625;-26
2022/01/25 12:27:18;;;;;;;69.97;33.60;;;6.10;99.90;;;;;;5008347;28;20223;-26
2022/01/25 12:30:09;;;;;;;66.27;32.63;;;6.10;99.90;;;;;;5013598;28;20202;-26
2022/01/25 12:33:02;;;;;;;76.17;33.57;;;6.10;99.90;;;;;;5010451;28;20699;-26
2022/01/25 12:35:40;;;;;;;67.47;33.63;;;6.10;99.90;;;;;;5009763;28;20258;-26
2022/01/25 12:38:27;;;;;;;62.53;31.73;;;6.10;99.90;;;;;;5013637;28;20255;-26
2022/01/25 12:41:13;;;;;;;66.57;33.33;;;6.10;99.90;;;;;;4991754;28;20203;-26
2022/01/25 12:43:51;;;;;;;68.47;32.73;;;6.10;99.90;;;;;;5007558;28;20217;-27
2022/01/25 12:46:24;;;;;;;67.83;32.33;;;6.10;99.90;;;;;;5010426;28;20263;-25
2022/01/25 12:48:56;;;;;;;74.60;34.10;;;6.10;99.90;;;;;;5010233;28;20201;-25
2022/01/25 12:51:30;;;;;;;69.10;34.70;;;6.10;99.90;;;;;;5019568;28;20310;-25
2022/01/25 12:54:00;;;;;;;69.77;33.73;;;6.10;99.90;;;;;;5025038;28;20229;-24
2022/01/25 12:56:34;;;;;;;82.80;35.80;;;6.10;99.90;;;;;;5010391;28;20207;-25
2022/01/25 12:59:13;;;;;;;75.83;34.23;;;6.10;99.90;;;;;;5009799;28;20205;-25
2022/01/25 13:01:46;;;;;;;75.10;35.03;;;6.10;99.90;;;;;;5024089;28;20205;-25
2022/01/25 13:04:17;;;;;;;70.00;33.90;;;6.10;99.90;;;;;;5009430;28;20558;-25
2022/01/25 13:06:50;;;;;;;77.77;35.93;;;6.10;99.90;;;;;;5023872;28;20695;-25
2022/01/25 13:09:26;;;;;;;75.57;35.23;;;6.10;99.90;;;;;;5022659;28;20293;-25
2022/01/25 13:12:28;;;;;;;77.70;35.70;;;6.20;99.90;;;;;;5042165;28;20251;-25
2022/01/25 13:14:50;;;;;;;76.73;36.73;;;6.10;99.90;;;;;;5006422;28;20208;-25
2022/01/25 13:17:25;;;;;;;75.40;34.33;;;6.10;99.90;;;;;;5009400;28;20263;-24
2022/01/25 13:20:00;;;;;;;79.07;36.13;;;6.10;99.90;;;;;;5009871;28;20679;-24
2022/01/25 13:22:42;;;;;;;83.80;36.93;;;6.10;99.90;;;;;;5007794;28;20328;-25
2022/01/25 13:25:26;;;;;;;77.07;35.53;;;6.10;99.90;;;;;;5025433;28;20658;-25
2022/01/25 13:27:58;;;;;;;79.93;37.37;;;6.10;99.90;;;;;;5025842;28;20216;-24
2022/01/25 13:30:43;;;;;;;76.97;34.57;;;6.10;99.90;;;;;;5009872;28;20244;-25
2022/01/25 13:33:20;;;;;;;86.23;37.40;;;6.10;99.90;;;;;;5009506;28;20237;-25
2022/01/25 13:35:53;;;;;;;80.70;35.90;;;6.10;99.90;;;;;;5040011;28;20754;-25
2022/01/25 13:38:27;;;;;;;83.57;36.23;;;6.10;99.90;;;;;;5009415;28;20305;-24
2022/01/25 13:46:36;;;;;;;80.80;36.77;;;6.10;99.90;;;;;;5009025;28;20714;-25
2022/01/25 13:49:11;;;;;;;77.50;35.77;;;6.10;99.90;;;;;;5008077;28;20292;-24
2022/01/25 13:51:46;;;;;;;79.50;37.70;;;6.10;99.90;;;;;;5008052;28;20248;-25
2022/01/25 13:54:23;;;;;;;86.43;36.73;;;6.20;99.90;;;;;;5023503;28;20216;-24
2022/01/25 13:56:51;;;;;;;84.13;35.30;;;6.20;99.90;;;;;;5022247;28;20217;-25
2022/01/25 13:59:23;;;;;;;84.43;37.10;;;6.20;99.90;;;;;;5029069;28;20201;-25
2022/01/25 14:01:51;;;;;;;85.67;37.53;;;6.20;99.90;;;;;;5016179;28;20210;-25
2022/01/25 14:04:24;;;;;;;85.50;37.43;;;6.20;99.90;;;;;;5007347;28;20263;-25
2022/01/25 14:07:00;;;;;;;86.37;36.77;;;6.20;99.90;;;;;;5008052;28;20218;-24
2022/01/25 14:09:33;;;;;;;85.67;36.77;;;6.20;99.90;;;;;;5006393;28;20676;-25
2022/01/25 14:25:49;;;;;;;78.63;34.97;;;6.20;99.90;;;;;;5019099;28;20418;-24
2022/01/25 14:28:25;;;;;;;74.77;34.93;;;6.20;99.90;;;;;;5015512;28;20235;-25
2022/01/25 14:30:57;;;;;;;66.17;33.03;;;6.30;99.90;;;;;;5029829;28;20683;-25
2022/01/25 14:33:34;;;;;;;71.27;35.43;;;6.30;99.90;;;;;;5009982;28;20580;-25
2022/01/25 14:36:09;;;;;;;72.53;36.87;;;6.30;99.90;;;;;;5027216;28;20593;-24
2022/01/25 14:38:44;;;;;;;74.63;34.93;;;6.30;99.90;;;;;;5009790;28;20300;-25
2022/01/25 14:41:20;;;;;;;74.50;36.10;;;6.30;99.90;;;;;;5006812;28;20693;-25
2022/01/25 14:43:54;;;;;;;76.30;36.47;;;6.30;99.90;;;;;;5008198;28;20201;-25
2022/01/25 14:46:32;;;;;;;72.07;35.03;;;6.30;99.90;;;;;;5007986;28;20245;-25
2022/01/25 14:49:08;;;;;;;78.40;37.07;;;6.30;99.90;;;;;;5014857;28;20606;-25
2022/01/25 14:51:54;;;;;;;80.67;36.63;;;6.30;99.90;;;;;;5005633;28;20344;-31
2022/01/25 14:54:33;;;;;;;75.83;36.17;;;6.30;99.90;;;;;;5022720;28;20225;-25
2022/01/25 14:57:15;;;;;;;74.33;36.83;;;6.20;99.90;;;;;;5005170;28;20283;-25
2022/01/25 14:59:47;;;;;;;73.83;35.00;;;6.20;99.90;;;;;;5020855;28;20252;-25
2022/01/25 15:02:23;;;;;;;83.53;35.93;;;6.20;99.90;;;;;;5007272;28;20209;-25
2022/01/25 15:04:56;;;;;;;79.83;35.40;;;6.20;99.90;;;;;;5026116;28;20214;-25
2022/01/25 15:07:33;;;;;;;80.70;36.33;;;6.20;99.90;;;;;;5006854;28;20213;-25